aviador You're here:

YBHM Decoded Metar

HAMILTON ISLAND in AUSTRALIA
Report Time2017-07-24 22:00:00
UTC Time2017-07-24 22:28:57
Flight Rules vfr VFR
Wind160° at 16 kt
W.Decomp.*RWY 14: 15.7 kt HW 3.3 kt RCW
W.Rank160° ranks 7
Current wind is above 160° avg. (14.1)
Visibility9999 m
Phenomena:N/A
Clouds:N/A
Expected CloudBase > 2,000 ft AGL from Temp-Dew spread
CeilingNone
Temp21°C (ISA +6)
Dew Point16°C (73% RH)
AAT17.2°C
QNH1022 hPa
Density Alt659 ft
Elevation16 ft
Report Wrong Elevation
Raw Report
YBHM 242200Z AUTO 16016KT 9999 // NCD 21/16 Q1022=

Extra information for YBHM:More info

Metar Taf Metar & Taf Last 4 Metars F.Rules Stats Wind Profile Meteogram Temp Stats Airport Information Weather charts Add Link Nearby VenuesMetar ALERT Operation Metar Decoded Social comments